createdAt,value
2018-04-11T00:00:39.614Z,14.52
2018-04-11T00:01:39.993Z,14.52
2018-04-11T00:03:39.939Z,14.36
2018-04-11T00:04:39.701Z,14.37
2018-04-11T00:05:39.984Z,14.37
2018-04-11T00:07:54.686Z,14.29
2018-04-11T00:08:40.048Z,14.28
2018-04-11T00:09:40.076Z,14.18
2018-04-11T00:10:40.098Z,14.18
2018-04-11T00:11:40.119Z,14.21
2018-04-11T00:12:40.146Z,14.2
2018-04-11T00:13:40.163Z,14.17
2018-04-11T00:14:54.845Z,14.18
2018-04-11T00:15:39.948Z,14.2
2018-04-11T00:16:40.245Z,14.1
2018-04-11T00:17:54.654Z,14.09
2018-04-11T00:18:40.276Z,14.06
2018-04-11T00:20:40.323Z,13.95
2018-04-11T00:21:40.346Z,13.97
2018-04-11T00:22:40.370Z,13.96
2018-04-11T00:24:40.413Z,13.96
2018-04-11T00:25:40.434Z,13.92
2018-04-11T00:26:40.460Z,13.97
2018-04-11T00:27:55.140Z,13.96
2018-04-11T00:28:40.499Z,13.89
2018-04-11T00:29:40.517Z,13.88
2018-04-11T00:30:40.542Z,13.89
2018-04-11T00:31:55.222Z,13.91
2018-04-11T00:32:40.581Z,13.88
2018-04-11T00:33:40.609Z,13.91
2018-04-11T00:34:40.628Z,13.88
2018-04-11T00:36:40.673Z,13.79
2018-04-11T00:38:55.376Z,13.78
2018-04-11T00:39:40.736Z,13.79
2018-04-11T00:40:40.758Z,13.73
2018-04-11T00:41:40.784Z,13.79
2018-04-11T00:42:40.802Z,13.77
2018-04-11T00:43:40.825Z,13.78
2018-04-11T00:44:40.845Z,13.73
2018-04-11T00:45:40.871Z,13.77
2018-04-11T00:46:40.896Z,13.77
2018-04-11T00:47:41.019Z,13.7
2018-04-11T00:48:40.942Z,13.77
2018-04-11T00:49:40.966Z,13.75
2018-04-11T00:50:40.979Z,13.77
2018-04-11T00:51:40.759Z,13.77
2018-04-11T00:52:41.022Z,13.67
2018-04-11T00:53:41.056Z,13.78
2018-04-11T00:54:41.121Z,13.81
2018-04-11T00:55:41.096Z,13.7
2018-04-11T00:56:41.110Z,13.78
2018-04-11T00:57:41.140Z,13.78
2018-04-11T00:58:40.896Z,13.77
2018-04-11T00:59:41.175Z,13.79
2018-04-11T01:00:41.201Z,13.79
2018-04-11T01:01:40.960Z,13.87
2018-04-11T01:02:40.984Z,13.77
2018-04-11T01:03:41.270Z,13.75
2018-04-11T01:05:41.048Z,13.79
2018-04-11T01:06:41.329Z,13.75
2018-04-11T01:07:41.090Z,13.81
2018-04-11T01:08:41.113Z,13.79
2018-04-11T01:10:56.079Z,13.78
2018-04-11T01:11:41.442Z,13.81
2018-04-11T01:12:56.148Z,13.75
2018-04-11T01:13:41.488Z,13.75
2018-04-11T01:14:41.501Z,13.71
2018-04-11T01:15:41.266Z,13.77
2018-04-11T01:16:56.207Z,13.71
2018-04-11T01:17:56.227Z,13.69
2018-04-11T01:18:41.594Z,13.77
2018-04-11T01:19:41.612Z,13.84
2018-04-11T01:20:41.633Z,13.62
2018-04-11T01:21:41.400Z,13.66
2018-04-11T01:22:41.684Z,13.6
2018-04-11T01:23:41.444Z,13.69
2018-04-11T01:25:41.749Z,13.62
2018-04-11T01:26:56.435Z,13.64
2018-04-11T01:27:41.531Z,13.64
2018-04-11T01:28:41.911Z,13.63
2018-04-11T01:29:41.835Z,13.6
2018-04-11T01:30:41.955Z,13.67
2018-04-11T01:31:41.883Z,13.6
2018-04-11T01:32:41.904Z,13.64
2018-04-11T01:33:41.410Z,13.67
2018-04-11T01:34:41.942Z,13.67
2018-04-11T01:35:41.962Z,13.66
2018-04-11T01:36:41.985Z,13.71
2018-04-11T01:37:42.008Z,13.67
2018-04-11T01:38:42.027Z,13.71
2018-04-11T01:39:41.797Z,13.81
2018-04-11T01:40:42.074Z,13.75
2018-04-11T01:41:42.092Z,13.75
2018-04-11T01:42:56.773Z,13.75
2018-04-11T01:43:42.138Z,13.78
2018-04-11T01:44:41.901Z,13.69
2018-04-11T01:45:42.181Z,13.71
2018-04-11T01:46:42.203Z,13.67
2018-04-11T01:47:41.711Z,13.7
2018-04-11T01:48:56.908Z,13.73
2018-04-11T01:49:56.928Z,13.71
2018-04-11T01:50:42.300Z,13.71
2018-04-11T01:51:42.314Z,13.6
2018-04-11T01:52:42.080Z,13.62
2018-04-11T01:53:42.356Z,13.7
2018-04-11T01:54:42.379Z,13.64
2018-04-11T01:55:42.399Z,13.62
2018-04-11T01:56:42.163Z,13.67
2018-04-11T01:57:42.184Z,13.62
2018-04-11T01:58:57.125Z,13.63
2018-04-11T01:59:42.491Z,13.57
2018-04-11T02:00:42.514Z,13.6
2018-04-11T02:01:42.533Z,13.6
2018-04-11T02:02:57.218Z,13.6
2018-04-11T02:03:42.582Z,13.49
2018-04-11T02:04:42.339Z,13.62
2018-04-11T02:05:42.622Z,13.59
2018-04-11T02:06:42.642Z,13.59
2018-04-11T02:07:42.454Z,13.54
2018-04-11T02:08:42.692Z,13.6
2018-04-11T02:09:42.771Z,13.57
2018-04-11T02:10:42.731Z,13.51
2018-04-11T02:11:42.749Z,13.54
2018-04-11T02:12:42.518Z,13.51
2018-04-11T02:14:42.818Z,13.54
2018-04-11T02:15:42.628Z,13.51
2018-04-11T02:16:42.860Z,13.54
2018-04-11T02:17:57.542Z,13.54
2018-04-11T02:18:57.564Z,13.54
2018-04-11T02:19:42.924Z,13.51
2018-04-11T02:20:42.686Z,13.51
2018-04-11T02:21:57.629Z,13.46
2018-04-11T02:22:42.729Z,13.48
2018-04-11T02:23:42.802Z,13.46
2018-04-11T02:24:42.774Z,13.46
2018-04-11T02:25:43.055Z,13.49
2018-04-11T02:26:43.088Z,13.36
2018-04-11T02:27:43.100Z,13.41
2018-04-11T02:28:43.122Z,13.42
2018-04-11T02:29:43.141Z,13.41
2018-04-11T02:30:43.163Z,13.33
2018-04-11T02:31:43.200Z,13.33
2018-04-11T02:32:43.211Z,13.38
2018-04-11T02:33:42.967Z,13.38
2018-04-11T02:34:43.256Z,13.33
2018-04-11T02:36:57.953Z,13.19
2018-04-11T02:37:43.320Z,13.22
2018-04-11T02:38:43.336Z,13.17
2018-04-11T02:39:57.759Z,13.2
2018-04-11T02:40:43.382Z,13.19
2018-04-11T02:41:43.405Z,13.22
2018-04-11T02:42:43.186Z,13.25
2018-04-11T02:43:43.451Z,13.19
2018-04-11T02:44:43.267Z,13.19
2018-04-11T02:46:43.512Z,13.2
2018-04-11T02:47:43.534Z,13.12
2018-04-11T02:48:43.563Z,13.17
2018-04-11T02:50:43.593Z,13.11
2018-04-11T02:51:43.632Z,13.05
2018-04-11T02:52:58.295Z,13.07
2018-04-11T02:53:43.670Z,13.07
2018-04-11T02:54:43.691Z,13.01
2018-04-11T02:55:43.704Z,13
2018-04-11T02:56:43.724Z,12.97
2018-04-11T02:57:43.745Z,12.92
2018-04-11T02:59:43.792Z,12.92
2018-04-11T03:00:43.819Z,12.86
2018-04-11T03:01:58.488Z,12.78
2018-04-11T03:02:58.518Z,12.77
2018-04-11T03:03:43.878Z,12.83
2018-04-11T03:04:43.898Z,12.67
2018-04-11T03:05:43.923Z,12.7
2018-04-11T03:06:43.941Z,12.68
2018-04-11T03:07:43.960Z,12.67
2018-04-11T03:08:43.995Z,12.68
2018-04-11T03:09:44.006Z,12.67
2018-04-11T03:10:44.023Z,12.56
2018-04-11T03:11:43.786Z,12.68
2018-04-11T03:12:44.071Z,12.54
2018-04-11T03:13:44.087Z,12.62
2018-04-11T03:14:43.590Z,12.49
2018-04-11T03:16:43.632Z,12.52
2018-04-11T03:17:58.832Z,12.59
2018-04-11T03:18:44.195Z,12.54
2018-04-11T03:19:58.879Z,12.57
2018-04-11T03:20:44.243Z,12.52
2018-04-11T03:21:44.256Z,12.49
2018-04-11T03:22:44.279Z,12.67
2018-04-11T03:23:44.045Z,12.68
2018-04-11T03:24:44.329Z,12.67
2018-04-11T03:25:44.082Z,12.7
2018-04-11T03:26:44.360Z,12.72
2018-04-11T03:27:44.382Z,12.7
2018-04-11T03:28:44.402Z,12.67
2018-04-11T03:29:44.176Z,12.65
2018-04-11T03:30:44.561Z,12.64
2018-04-11T03:31:44.236Z,12.7
2018-04-11T03:32:44.488Z,12.72
2018-04-11T03:33:59.167Z,12.74
2018-04-11T03:34:44.531Z,12.77
2018-04-11T03:35:44.552Z,12.71
2018-04-11T03:36:44.313Z,12.74
2018-04-11T03:37:44.592Z,12.65
2018-04-11T03:38:44.623Z,12.78
2018-04-11T03:39:44.378Z,12.65
2018-04-11T03:40:44.663Z,12.65
2018-04-11T03:41:44.529Z,12.78
2018-04-11T03:42:44.723Z,12.71
2018-04-11T03:43:44.721Z,12.74
2018-04-11T03:44:44.769Z,12.77
2018-04-11T03:45:44.764Z,12.64
2018-04-11T03:47:44.809Z,12.62
2018-04-11T03:48:59.488Z,12.67
2018-04-11T03:49:44.591Z,12.57
2018-04-11T03:50:44.873Z,12.54
2018-04-11T03:51:44.632Z,12.49
2018-04-11T03:52:44.912Z,12.49
2018-04-11T03:54:44.436Z,12.56
2018-04-11T03:55:44.716Z,12.62
2018-04-11T03:56:44.738Z,12.54
2018-04-11T03:57:45.020Z,12.54
2018-04-11T03:58:45.038Z,12.62
2018-04-11T03:59:44.546Z,12.64
2018-04-11T04:00:44.838Z,12.6
2018-04-11T04:01:45.312Z,12.54
2018-04-11T04:02:45.124Z,12.64
2018-04-11T04:03:45.153Z,12.52
2018-04-11T04:04:45.164Z,12.47
2018-04-11T04:05:45.186Z,12.47
2018-04-11T04:06:45.207Z,12.46
2018-04-11T04:07:45.368Z,12.53
2018-04-11T04:08:45.251Z,12.49
2018-04-11T04:09:45.011Z,12.59
2018-04-11T04:10:45.292Z,12.47
2018-04-11T04:11:59.971Z,12.59
2018-04-11T04:12:45.337Z,12.52
2018-04-11T04:14:00.027Z,12.57
2018-04-11T04:14:59.776Z,12.64
2018-04-11T04:15:45.405Z,12.6
2018-04-11T04:16:45.158Z,12.52
2018-04-11T04:17:45.545Z,12.5
2018-04-11T04:18:45.202Z,12.57
2018-04-11T04:19:45.274Z,12.67
2018-04-11T04:21:00.163Z,12.65
2018-04-11T04:21:45.524Z,12.7
2018-04-11T04:22:45.550Z,12.52
2018-04-11T04:23:45.566Z,12.57
2018-04-11T04:24:45.327Z,12.53
2018-04-11T04:25:45.618Z,12.57
2018-04-11T04:27:00.290Z,12.53
2018-04-11T04:27:45.652Z,12.52
2018-04-11T04:28:45.415Z,12.47
2018-04-11T04:29:45.440Z,12.45
2018-04-11T04:30:45.195Z,12.6
2018-04-11T04:31:45.477Z,12.49
2018-04-11T04:32:45.754Z,12.45
2018-04-11T04:33:45.776Z,12.39
2018-04-11T04:35:45.820Z,12.34
2018-04-11T04:37:00.500Z,12.35
2018-04-11T04:37:45.604Z,12.32
2018-04-11T04:38:45.882Z,12.39
2018-04-11T04:39:46.003Z,12.27
2018-04-11T04:40:45.921Z,12.2
2018-04-11T04:41:45.953Z,12.19
2018-04-11T04:42:45.969Z,12.19
2018-04-11T04:44:00.645Z,12.16
2018-04-11T04:44:46.013Z,12.24
2018-04-11T04:45:46.029Z,12.19
2018-04-11T04:47:00.450Z,12.13
2018-04-11T04:47:46.075Z,12.16
2018-04-11T04:48:45.834Z,12.17
2018-04-11T04:49:46.118Z,12.2
2018-04-11T04:51:46.161Z,12.19
2018-04-11T04:53:45.942Z,12.24
2018-04-11T04:54:46.223Z,12.19
2018-04-11T04:55:45.983Z,12.29
2018-04-11T04:56:46.268Z,12.29
2018-04-11T04:57:46.287Z,12.27
2018-04-11T04:58:46.088Z,12.34
2018-04-11T05:00:00.983Z,12.31
2018-04-11T05:00:46.347Z,12.45
2018-04-11T05:01:46.365Z,12.45
2018-04-11T05:02:46.127Z,12.45
2018-04-11T05:03:46.408Z,12.45
2018-04-11T05:04:46.174Z,12.46
2018-04-11T05:05:46.457Z,12.46
2018-04-11T05:06:46.471Z,12.5
2018-04-11T05:07:46.594Z,12.45
2018-04-11T05:09:46.533Z,12.45
2018-04-11T05:10:46.555Z,12.45
2018-04-11T05:11:46.359Z,12.42
2018-04-11T05:12:46.338Z,12.42
2018-04-11T05:13:46.620Z,12.41
2018-04-11T05:14:46.645Z,12.46
2018-04-11T05:15:46.403Z,12.53
2018-04-11T05:16:46.682Z,12.45
2018-04-11T05:17:46.701Z,12.41
2018-04-11T05:18:46.723Z,12.49
2018-04-11T05:19:46.746Z,12.45
2018-04-11T05:20:46.774Z,12.57
2018-04-11T05:24:46.865Z,12.47
2018-04-11T05:25:46.871Z,12.45
2018-04-11T05:26:46.897Z,12.5
2018-04-11T05:27:46.916Z,12.53
2018-04-11T05:28:46.936Z,12.49
2018-04-11T05:29:46.699Z,12.5
2018-04-11T05:30:46.982Z,12.53
2018-04-11T05:31:47.000Z,12.56
2018-04-11T05:32:47.162Z,12.53
2018-04-11T05:33:47.044Z,12.62
2018-04-11T05:34:47.062Z,12.54
2018-04-11T05:35:47.089Z,12.64
2018-04-11T05:36:47.116Z,12.57
2018-04-11T05:37:47.143Z,12.52
2018-04-11T05:38:46.889Z,12.5
2018-04-11T05:39:47.169Z,12.56
2018-04-11T05:40:47.194Z,12.57
2018-04-11T05:41:47.218Z,12.57
2018-04-11T05:42:47.243Z,12.7
2018-04-11T05:43:47.254Z,12.52
2018-04-11T05:44:47.018Z,12.53
2018-04-11T05:45:47.296Z,12.65
2018-04-11T05:46:47.349Z,12.67
2018-04-11T05:48:02.046Z,12.7
2018-04-11T05:48:47.359Z,12.74
2018-04-11T05:49:47.381Z,12.75
2018-04-11T05:50:47.411Z,12.87
2018-04-11T05:51:47.167Z,12.92
2018-04-11T05:52:47.448Z,13.03
2018-04-11T05:53:47.467Z,13.04
2018-04-11T05:54:47.491Z,12.93
2018-04-11T05:57:47.562Z,12.97
2018-04-11T05:58:47.625Z,12.9
2018-04-11T05:59:47.338Z,12.89
2018-04-11T06:00:47.630Z,12.97
2018-04-11T06:01:47.386Z,13.08
2018-04-11T06:02:47.670Z,13.15
2018-04-11T06:03:47.692Z,13.2
2018-04-11T06:05:02.364Z,13.25
2018-04-11T06:05:47.482Z,13.19
2018-04-11T06:06:47.752Z,13.3
2018-04-11T06:07:47.783Z,13.41
2018-04-11T06:08:47.535Z,13.39
2018-04-11T06:09:47.815Z,13.49
2018-04-11T06:10:47.843Z,13.55
2018-04-11T06:12:47.888Z,13.71
2018-04-11T06:13:47.905Z,13.84
2018-04-11T06:15:02.591Z,13.77
2018-04-11T06:15:47.738Z,13.85
2018-04-11T06:16:47.969Z,13.78
2018-04-11T06:18:02.397Z,13.77
2018-04-11T06:18:47.502Z,13.79
2018-04-11T06:19:48.043Z,13.85
2018-04-11T06:20:48.063Z,13.71
2018-04-11T06:21:48.091Z,13.78
2018-04-11T06:22:48.209Z,13.92
2018-04-11T06:23:48.128Z,14.03
2018-04-11T06:24:48.149Z,14.12
2018-04-11T06:25:48.171Z,14.24
2018-04-11T06:26:47.941Z,14.39
2018-04-11T06:28:02.897Z,14.6
2018-04-11T06:28:48.241Z,14.77
2018-04-11T06:29:48.008Z,15.19
2018-04-11T06:30:48.288Z,15.75
2018-04-11T06:31:48.318Z,16.07
2018-04-11T06:32:48.337Z,16.35
2018-04-11T06:33:48.465Z,16.64
2018-04-11T06:35:03.063Z,16.91
2018-04-11T06:35:48.407Z,17.04
2018-04-11T06:36:48.432Z,17.25
2018-04-11T06:37:48.460Z,17.3
2018-04-11T06:39:02.883Z,17.31
2018-04-11T06:39:48.509Z,17.28
2018-04-11T06:40:48.539Z,17.51
2018-04-11T06:41:48.566Z,17.89
2018-04-11T06:42:48.588Z,18.05
2018-04-11T06:44:03.012Z,18.08
2018-04-11T06:44:48.389Z,17.92
2018-04-11T06:45:48.664Z,17.92
2018-04-11T06:46:48.697Z,18.1
2018-04-11T06:47:48.719Z,18.05
2018-04-11T06:48:48.487Z,18.14
2018-04-11T06:49:48.780Z,18.3
2018-04-11T06:50:48.799Z,18.51
2018-04-11T06:51:48.832Z,18.67
2018-04-11T06:52:48.599Z,18.6
2018-04-11T06:53:48.883Z,18.51
2018-04-11T06:54:48.919Z,18.8
2018-04-11T06:55:48.949Z,18.67
2018-04-11T06:56:48.967Z,18.78
2018-04-11T06:57:49.005Z,18.85
2018-04-11T06:59:03.688Z,19.16
2018-04-11T06:59:49.057Z,19.32
2018-04-11T07:00:49.090Z,19.51
2018-04-11T07:01:48.594Z,19.31
2018-04-11T07:02:49.156Z,18.87
2018-04-11T07:03:49.169Z,19
2018-04-11T07:04:48.946Z,18.95
2018-04-11T07:05:49.227Z,18.82
2018-04-11T07:06:49.262Z,18.75
2018-04-11T07:07:49.027Z,18.76
2018-04-11T07:08:49.315Z,19.08
2018-04-11T07:09:49.356Z,19.18
2018-04-11T07:10:49.375Z,19.4
2018-04-11T07:11:49.408Z,19.48
2018-04-11T07:13:49.206Z,19.21
2018-04-11T07:14:49.496Z,19.29
2018-04-11T07:15:49.527Z,19.33
2018-04-11T07:16:49.557Z,19.4
2018-04-11T07:17:49.587Z,19.63
2018-04-11T07:19:04.279Z,19.74
2018-04-11T07:20:04.307Z,20.06
2018-04-11T07:21:04.337Z,19.8
2018-04-11T07:22:04.367Z,19.74
2018-04-11T07:22:49.735Z,19.94
2018-04-11T07:23:49.507Z,19.74
2018-04-11T07:24:49.538Z,19.68
2018-04-11T07:26:04.565Z,19.55
2018-04-11T07:27:49.887Z,19.73
2018-04-11T07:28:49.920Z,19.83
2018-04-11T07:29:49.695Z,19.96
2018-04-11T07:31:04.381Z,19.88
2018-04-11T07:31:49.763Z,19.86
2018-04-11T07:32:49.786Z,19.78
2018-04-11T07:33:49.932Z,20.06
2018-04-11T07:34:49.843Z,20.23
2018-04-11T07:35:50.135Z,20.21
2018-04-11T07:37:04.827Z,20.23
2018-04-11T07:38:04.857Z,20.13
2018-04-11T07:38:49.967Z,20.17
2018-04-11T07:40:04.997Z,20.24
2018-04-11T07:40:50.291Z,20.24
2018-04-11T07:41:50.320Z,20.5
2018-04-11T07:42:50.351Z,20.61
2018-04-11T07:43:50.381Z,20.79
2018-04-11T07:44:50.417Z,20.38
2018-04-11T07:47:05.141Z,21.14
2018-04-11T07:47:50.252Z,21.34
2018-04-11T07:48:50.536Z,21.38
2018-04-11T07:49:50.319Z,21.24
2018-04-11T07:50:50.353Z,21.16
2018-04-11T07:51:50.383Z,21.19
2018-04-11T07:52:50.155Z,21.24
2018-04-11T07:53:50.447Z,21.25
2018-04-11T07:54:50.738Z,21.35
2018-04-11T07:55:50.764Z,21.79
2018-04-11T07:57:05.190Z,21.98
2018-04-11T07:57:50.828Z,21.94
2018-04-11T07:58:50.851Z,21.94
2018-04-11T07:59:50.621Z,22.03
2018-04-11T08:00:50.914Z,21.96
2018-04-11T08:03:51.007Z,21.65
2018-04-11T08:04:51.055Z,22.09
2018-04-11T08:05:51.068Z,22.36
2018-04-11T08:06:51.109Z,22.43
2018-04-11T08:07:51.135Z,22.24
2018-04-11T08:08:51.175Z,21.99
2018-04-11T08:10:50.710Z,22.18
2018-04-11T08:11:51.263Z,22.36
2018-04-11T08:12:51.042Z,22.12
2018-04-11T08:13:51.319Z,21.84
2018-04-11T08:14:51.370Z,21.8
2018-04-11T08:15:51.385Z,22.14
2018-04-11T08:16:51.414Z,21.99
2018-04-11T08:19:06.138Z,22.25
2018-04-11T08:19:51.513Z,22.36
2018-04-11T08:20:51.539Z,22.6
2018-04-11T08:21:51.581Z,22.46
2018-04-11T08:22:51.613Z,22.22
2018-04-11T08:23:51.638Z,22.06
2018-04-11T08:24:51.404Z,22.25
2018-04-11T08:25:51.694Z,22.51
2018-04-11T08:26:51.727Z,22.49
2018-04-11T08:27:51.757Z,22.77
2018-04-11T08:28:51.529Z,22.68
2018-04-11T08:29:51.885Z,22.17
2018-04-11T08:30:51.852Z,21.92
2018-04-11T08:31:51.880Z,22.12
2018-04-11T08:32:51.916Z,22.21
2018-04-11T08:34:51.724Z,22.12
2018-04-11T08:35:51.749Z,21.88
2018-04-11T08:36:52.040Z,21.8
2018-04-11T08:37:52.066Z,22
2018-04-11T08:38:52.114Z,21.68
2018-04-11T08:39:51.868Z,21.28
2018-04-11T08:40:51.899Z,21.12
2018-04-11T08:41:52.194Z,21.42
2018-04-11T08:42:52.220Z,21.62
2018-04-11T08:43:52.360Z,21.52
2018-04-11T08:44:52.283Z,21.71
2018-04-11T08:45:52.052Z,21.8
2018-04-11T08:46:52.342Z,21.75
2018-04-11T08:47:52.113Z,21.9
2018-04-11T08:48:52.412Z,21.96
2018-04-11T08:49:51.916Z,21.69
2018-04-11T08:50:52.465Z,21.37
2018-04-11T08:51:52.280Z,21.49
2018-04-11T08:52:52.528Z,21.62
2018-04-11T08:54:52.327Z,22.12
2018-04-11T08:55:52.624Z,22.15
2018-04-11T08:56:52.648Z,22
2018-04-11T08:58:07.337Z,21.82
2018-04-11T08:58:52.463Z,22.25
2018-04-11T08:59:52.736Z,22.73
2018-04-11T09:00:52.771Z,22.77
2018-04-11T09:01:52.801Z,23.01
2018-04-11T09:02:52.565Z,22.79
2018-04-11T09:03:52.874Z,22.55
2018-04-11T09:04:52.884Z,22.62
2018-04-11T09:06:07.585Z,22.54
2018-04-11T09:06:53.049Z,22.64
2018-04-11T09:07:52.980Z,22.95
2018-04-11T09:08:52.748Z,22.67
2018-04-11T09:09:53.033Z,22.9
2018-04-11T09:10:53.068Z,22.97
2018-04-11T09:11:53.111Z,22.97
2018-04-11T09:12:52.872Z,22.91
2018-04-11T09:13:53.170Z,22.72
2018-04-11T09:14:53.186Z,22.73
2018-04-11T09:15:53.223Z,22.7
2018-04-11T09:16:53.251Z,22.75
2018-04-11T09:17:53.276Z,23
2018-04-11T09:18:53.047Z,23.04
2018-04-11T09:20:53.489Z,23.25
2018-04-11T09:22:07.800Z,23.31
2018-04-11T09:22:53.432Z,23.43
2018-04-11T09:23:53.501Z,23.43
2018-04-11T09:25:08.152Z,23.25
2018-04-11T09:26:08.203Z,23.31
2018-04-11T09:26:53.545Z,23.13
2018-04-11T09:27:53.575Z,23.2
2018-04-11T09:28:53.621Z,23.47
2018-04-11T09:29:53.379Z,23.1
2018-04-11T09:30:53.405Z,23.23
2018-04-11T09:31:54.012Z,23.13
2018-04-11T09:32:53.728Z,22.43
2018-04-11T09:33:53.493Z,22.55
2018-04-11T09:34:53.781Z,22.33
2018-04-11T09:35:53.294Z,22.25
2018-04-11T09:36:53.582Z,22.07
2018-04-11T09:38:08.545Z,22.42
2018-04-11T09:38:53.979Z,22.72
2018-04-11T09:39:53.939Z,22.55
2018-04-11T09:40:53.959Z,22.49
2018-04-11T09:41:54.015Z,22.77
2018-04-11T09:42:54.026Z,22.62
2018-04-11T09:44:08.455Z,22.06
2018-04-11T09:45:08.740Z,22.09
2018-04-11T09:45:54.108Z,21.83
2018-04-11T09:46:54.148Z,21.52
2018-04-11T09:47:54.177Z,21.43
2018-04-11T09:49:08.595Z,21.9
2018-04-11T09:49:54.225Z,22.1
2018-04-11T09:50:54.252Z,22.35
2018-04-11T09:54:09.004Z,21.83
2018-04-11T09:55:54.396Z,21.69
2018-04-11T09:56:54.430Z,21.96
2018-04-11T09:58:09.119Z,22.35
2018-04-11T09:58:54.484Z,22.47
2018-04-11T09:59:54.258Z,22.76
2018-04-11T10:00:54.284Z,22.9
2018-04-11T10:01:54.313Z,22.68
2018-04-11T10:03:54.367Z,22.51
2018-04-11T10:04:54.659Z,22.75
2018-04-11T10:05:54.425Z,22.55
2018-04-11T10:06:54.529Z,22.55
2018-04-11T10:07:54.746Z,22.7
2018-04-11T10:09:54.802Z,23
2018-04-11T10:10:54.837Z,22.77
2018-04-11T10:11:54.857Z,22.62
2018-04-11T10:12:54.886Z,22.76
2018-04-11T10:13:54.917Z,23.01
2018-04-11T10:14:54.947Z,23.15
2018-04-11T10:15:54.978Z,22.62
2018-04-11T10:16:54.482Z,22.2
2018-04-11T10:18:09.686Z,22.05
2018-04-11T10:18:55.059Z,21.72
2018-04-11T10:19:54.824Z,21.27
2018-04-11T10:20:54.853Z,21.19
2018-04-11T10:21:54.881Z,21.16
2018-04-11T10:23:55.197Z,20.95
2018-04-11T10:24:55.303Z,20.88
2018-04-11T10:25:54.994Z,21.21
2018-04-11T10:27:55.311Z,21.22
2018-04-11T10:28:55.349Z,21.17
2018-04-11T10:29:55.365Z,21.17
2018-04-11T10:30:55.135Z,21.14
2018-04-11T10:31:55.432Z,21.24
2018-04-11T10:33:10.109Z,21.47
2018-04-11T10:33:55.477Z,21.4
2018-04-11T10:34:55.512Z,21.4
2018-04-11T10:35:55.532Z,21.43
2018-04-11T10:36:55.303Z,21.38
2018-04-11T10:37:55.329Z,21.22
2018-04-11T10:38:55.614Z,21.13
2018-04-11T10:39:55.393Z,20.95
2018-04-11T10:42:55.475Z,20.89
2018-04-11T10:43:55.750Z,20.95
2018-04-11T10:44:55.781Z,20.91
2018-04-11T10:45:55.807Z,21.06
2018-04-11T10:46:55.574Z,21.22
2018-04-11T10:47:55.860Z,21.13
2018-04-11T10:49:55.933Z,20.84
2018-04-11T10:50:55.942Z,20.72
2018-04-11T10:51:55.971Z,20.74
2018-04-11T10:52:55.737Z,20.79
2018-04-11T10:53:56.022Z,20.7
2018-04-11T10:54:56.051Z,20.66
2018-04-11T10:55:56.077Z,20.41
2018-04-11T10:57:10.765Z,20.29
2018-04-11T10:58:56.156Z,20.61
2018-04-11T10:59:55.921Z,20.48
2018-04-11T11:00:56.378Z,20.59
2018-04-11T11:01:55.719Z,20.55
2018-04-11T11:02:56.268Z,20.11
2018-04-11T11:03:56.029Z,19.96
2018-04-11T11:04:56.314Z,20.21
2018-04-11T11:06:56.371Z,20.26
2018-04-11T11:07:56.396Z,20.31
2018-04-11T11:09:56.442Z,20.36
2018-04-11T11:10:56.473Z,20.38
2018-04-11T11:13:56.552Z,20.74
2018-04-11T11:14:56.576Z,20.69
2018-04-11T11:15:56.342Z,20.67
2018-04-11T11:16:56.628Z,20.7
2018-04-11T11:17:56.663Z,20.72
2018-04-11T11:18:56.419Z,20.64
2018-04-11T11:20:11.365Z,20.31
2018-04-11T11:20:56.739Z,20.11
2018-04-11T11:21:56.764Z,19.98
2018-04-11T11:22:56.860Z,19.91
2018-04-11T11:24:11.207Z,19.99
2018-04-11T11:24:56.576Z,19.78
2018-04-11T11:25:56.859Z,19.66
2018-04-11T11:26:56.639Z,19.41
2018-04-11T11:27:56.652Z,19.36
2018-04-11T11:29:56.964Z,19.36
2018-04-11T11:30:56.990Z,19.47
2018-04-11T11:31:57.014Z,19.61
2018-04-11T11:32:57.039Z,19.59
2018-04-11T11:33:57.072Z,19.78
2018-04-11T11:34:56.836Z,19.65
2018-04-11T11:36:11.774Z,19.84
2018-04-11T11:37:11.800Z,19.91
2018-04-11T11:37:56.919Z,19.91
2018-04-11T11:39:11.592Z,19.73
2018-04-11T11:39:56.958Z,19.78
2018-04-11T11:40:57.242Z,19.55
2018-04-11T11:41:57.318Z,19.56
2018-04-11T11:42:57.034Z,19.59
2018-04-11T11:44:57.345Z,19.65
2018-04-11T11:45:57.141Z,19.66
2018-04-11T11:46:57.396Z,19.76
2018-04-11T11:47:57.424Z,19.76
2018-04-11T11:48:57.454Z,19.81
2018-04-11T11:49:57.468Z,19.77
2018-04-11T11:51:12.163Z,19.92
2018-04-11T11:51:57.525Z,20.05
2018-04-11T11:52:57.550Z,20.11
2018-04-11T11:53:57.572Z,20.01
2018-04-11T11:54:57.349Z,19.94
2018-04-11T11:55:57.367Z,19.99
2018-04-11T11:57:57.679Z,19.99
2018-04-11T11:58:57.447Z,19.87
2018-04-11T11:59:57.468Z,19.98
2018-04-11T12:00:57.751Z,19.95
2018-04-11T12:02:57.546Z,19.78
2018-04-11T12:03:57.824Z,19.4
2018-04-11T12:04:57.945Z,19.16
2018-04-11T12:05:57.881Z,19.21
2018-04-11T12:06:57.903Z,19.26
2018-04-11T12:07:57.939Z,19.4
2018-04-11T12:08:57.949Z,19.62
2018-04-11T12:09:57.999Z,19.74
2018-04-11T12:10:57.486Z,19.86
2018-04-11T12:12:58.050Z,20.1
2018-04-11T12:13:58.095Z,20.23
2018-04-11T12:14:58.103Z,20.18
2018-04-11T12:16:12.792Z,20.21
2018-04-11T12:17:12.822Z,20.18
2018-04-11T12:17:58.183Z,20.26
2018-04-11T12:18:58.251Z,20.24
2018-04-11T12:19:58.226Z,20.32
2018-04-11T12:20:57.995Z,20.18
2018-04-11T12:21:58.020Z,20.2
2018-04-11T12:23:12.963Z,20.05
2018-04-11T12:23:57.811Z,20.05
2018-04-11T12:24:58.353Z,20.08
2018-04-11T12:25:58.382Z,20.13
2018-04-11T12:26:58.409Z,20.14
2018-04-11T12:28:58.459Z,20.14
2018-04-11T12:32:58.564Z,20.21
2018-04-11T12:33:58.321Z,20.1
2018-04-11T12:34:58.357Z,20.14
2018-04-11T12:35:58.640Z,20.13
2018-04-11T12:36:58.660Z,19.96
2018-04-11T12:37:58.687Z,19.91
2018-04-11T12:39:13.366Z,20.05
2018-04-11T12:39:58.477Z,20.1
2018-04-11T12:41:13.416Z,20.01
2018-04-11T12:41:58.782Z,19.98
2018-04-11T12:42:58.808Z,20.01
2018-04-11T12:43:58.832Z,20.17
2018-04-11T12:44:58.858Z,20.18
2018-04-11T12:46:58.910Z,20.11
2018-04-11T12:48:58.964Z,19.87
2018-04-11T12:49:58.725Z,19.73
2018-04-11T12:51:13.673Z,19.55
2018-04-11T12:51:59.035Z,19.54
2018-04-11T12:52:58.798Z,19.39
2018-04-11T12:53:59.088Z,19.25
2018-04-11T12:54:59.107Z,19.32
2018-04-11T12:55:59.168Z,19.4
2018-04-11T12:56:59.158Z,19.33
2018-04-11T12:58:59.208Z,19.13
2018-04-11T12:59:59.240Z,19.11
2018-04-11T13:00:58.999Z,19.14
2018-04-11T13:01:59.289Z,19.16
2018-04-11T13:04:14.044Z,19.22
2018-04-11T13:04:59.149Z,19.48
2018-04-11T13:05:59.385Z,19.58
2018-04-11T13:06:59.406Z,19.47
2018-04-11T13:07:59.433Z,19.63
2018-04-11T13:08:59.202Z,19.68
2018-04-11T13:09:59.481Z,19.51
2018-04-11T13:11:59.273Z,19.29
2018-04-11T13:12:59.558Z,19.56
2018-04-11T13:13:59.586Z,19.37
2018-04-11T13:14:59.614Z,19.29
2018-04-11T13:15:59.637Z,19.19
2018-04-11T13:16:59.757Z,18.82
2018-04-11T13:17:59.177Z,18.7
2018-04-11T13:19:14.368Z,18.81
2018-04-11T13:20:59.765Z,18.76
2018-04-11T13:21:59.781Z,18.88
2018-04-11T13:22:59.806Z,19.16
2018-04-11T13:23:59.836Z,19.5
2018-04-11T13:24:59.858Z,19.73
2018-04-11T13:25:59.880Z,19.69
2018-04-11T13:28:14.588Z,19.71
2018-04-11T13:28:59.957Z,19.77
2018-04-11T13:29:59.978Z,19.78
2018-04-11T13:30:59.747Z,19.86
2018-04-11T13:32:00.029Z,19.77
2018-04-11T13:33:00.063Z,19.61
2018-04-11T13:34:00.077Z,19.68
2018-04-11T13:35:00.102Z,19.63
2018-04-11T13:36:00.133Z,19.76
2018-04-11T13:37:00.151Z,19.74
2018-04-11T13:37:59.919Z,19.77
2018-04-11T13:39:00.207Z,19.84
2018-04-11T13:40:00.025Z,19.98
2018-04-11T13:41:00.362Z,20.01
2018-04-11T13:42:14.937Z,20.03
2018-04-11T13:43:00.303Z,20.06
2018-04-11T13:44:00.326Z,20.14
2018-04-11T13:45:00.359Z,20.16
2018-04-11T13:46:00.385Z,20.13
2018-04-11T13:47:00.398Z,19.84
2018-04-11T13:49:00.470Z,19.65
2018-04-11T13:50:00.214Z,19.68
2018-04-11T13:52:00.267Z,19.61
2018-04-11T13:53:00.547Z,19.58
2018-04-11T13:54:00.578Z,19.71
2018-04-11T13:55:00.353Z,19.66
2018-04-11T13:56:00.370Z,19.62
2018-04-11T13:57:00.653Z,19.78
2018-04-11T13:58:15.333Z,19.59
2018-04-11T13:59:00.441Z,19.41
2018-04-11T14:00:00.731Z,19.11
2018-04-11T14:01:00.747Z,19.07
2018-04-11T14:02:00.774Z,19.04
2018-04-11T14:03:00.541Z,19
2018-04-11T14:04:00.568Z,19.08
2018-04-11T14:05:00.851Z,19.21
2018-04-11T14:06:00.874Z,19.4